Latest Weather Observations for Giles*

IDD60801

Issued at 10:51 pm CST Monday 6 July 2020 (issued every 10 minutes, with the page automatically refreshed every 10 minutes)

About weather observations | Map of weather stations | Latest weather observations for NT | Other Formats
Station Details ID: 013017 Name: GILES METEOROLOGICAL OFFICE Lat: -25.03 Lon: 128.30 Height: 598.0 m
Data from the previous 72 hours. | See also: Recent months at Giles*

* Giles observations are collected in the South Australia time zone, which includes daylight saving in the summer period. Therefore, Rain since 9am value is with respect to South Australia local time.

Date/Time
CST
Temp
°C
App
Temp
°C
Dew
Point
°C
Rel
Hum
%
Delta-T
°C
Wind Press
QNH
hPa
Press
MSL
hPa
Rain since
9am
mm
Dir  Spd
km/h
Gust
km/h
Spd
kts
Gust
kts
06/10:30pm 12.4 6.9 -5.4 28 6.7 E 15 20 8 11 1025.6 1024.9 0.0
06/10:00pm 13.1 7.3 -4.9 28 6.9 E 17 19 9 10 1025.4 1024.7 0.0
06/09:30pm 13.7 8.2 -5.0 27 7.2 ENE 15 19 8 10 1025.5 1024.8 0.0
06/09:00pm 14.3 8.5 -5.1 25 7.5 ENE 17 20 9 11 1025.5 1024.8 0.0
06/08:30pm 13.8 8.7 -4.8 27 7.2 E 13 17 7 9 1025.5 1024.8 0.0
06/08:00pm 14.5 9.8 -4.7 26 7.5 E 11 13 6 7 1025.4 1024.7 0.0
06/07:30pm 15.5 10.9 -4.3 25 7.9 E 11 13 6 7 1025.1 1024.4 0.0
06/07:00pm 16.3 12.2 -2.7 27 7.9 NE 9 9 5 5 1024.8 1024.1 0.0
06/06:30pm 17.7 13.1 -4.0 22 8.9 ENE 11 13 6 7 1024.2 1023.5 0.0
06/06:00pm 19.0 14.2 -6.1 17 10.0 ENE 11 15 6 8 1023.9 1023.2 0.0
06/05:30pm 19.6 14.4 -6.6 16 10.4 ENE 13 19 7 10 1023.9 1023.2 0.0
06/05:00pm 20.2 15.7 -6.6 16 10.7 E 9 15 5 8 1023.9 1023.2 0.0
06/04:30pm 20.0 14.7 -7.2 15 10.7 ESE 13 19 7 10 1024.0 1023.3 0.0
06/04:00pm 20.1 15.3 -5.8 17 10.5 E 11 19 6 10 1024.2 1023.5 0.0
06/03:30pm 20.2 16.0 -3.7 19 10.1 ENE 9 15 5 8 1024.2 1023.5 0.0
06/03:00pm 19.6 15.3 -5.1 18 10.1 ENE 9 19 5 10 1024.5 1023.8 0.0
06/02:30pm 19.3 15.3 -5.9 17 10.1 E 7 13 4 7 1024.8 1024.1 0.0
06/02:00pm 19.1 13.8 -6.9 16 10.2 E 13 20 7 11 1025.0 1024.3 0.0
06/01:30pm 18.5 13.0 -5.4 19 9.6 ENE 15 20 8 11 1025.3 1024.6 0.0
06/01:00pm 18.2 12.0 -5.2 20 9.5 NE 19 26 10 14 1025.8 1025.1 0.0
06/12:30pm 17.8 11.4 -4.7 21 9.1 ENE 20 28 11 15 1026.5 1025.8 0.0
06/12:00pm 16.9 10.1 -4.9 22 8.7 NE 22 32 12 17 1026.9 1026.2 0.0
06/11:30am 16.4 10.2 -3.3 25 8.1 ENE 20 33 11 18 1027.3 1026.7 0.0
06/11:00am 15.8 9.2 -3.3 26 7.8 ENE 22 30 12 16 1027.6 1027.0 0.0
06/10:30am 14.8 7.8 -3.7 27 7.4 NE 24 35 13 19 1027.6 1027.0 0.0
06/10:00am 14.3 8.1 -3.0 30 7.0 ENE 20 30 11 16 1027.8 1027.2 0.0
06/09:30am 13.1 6.9 -2.9 33 6.4 ENE 20 35 11 19 1027.7 1027.1 0.0
06/09:00am 11.9 6.8 -1.6 39 5.5 ENE 15 20 8 11 1027.5 1026.9 0.0
06/08:30am 11.2 7.2 -2.0 39 5.3 E 9 15 5 8 1027.4 1026.8 0.0
06/08:00am 10.3 9.6 10.1 99 0.1 NE 4 11 2 6 1027.1 1026.4 0.0
06/07:30am 10.5 7.8 10.5 100 0.0 ENE 15 30 8 16 1026.4 1025.7 0.0
06/07:00am 10.4 9.2 10.4 100 0.0 NE 7 13 4 7 1026.3 1025.6 0.0
06/06:30am 10.8 9.4 10.8 100 0.0 NE 9 19 5 10 1026.0 1025.4 0.0
06/06:00am 11.0 7.5 11.0 100 0.0 ENE 20 33 11 18 1025.5 1024.8 0.0
06/05:30am 11.0 6.8 11.0 100 0.0 E 24 35 13 19 1025.2 1024.5 0.0
06/05:00am 10.7 6.4 10.7 100 0.0 E 24 35 13 19 1025.2 1024.5 0.0
06/04:30am 11.1 6.9 11.1 100 0.0 E 24 33 13 18 1025.2 1024.5 0.0
06/04:00am 11.2 7.0 11.2 100 0.0 ENE 24 33 13 18 1025.3 1024.6 0.0
06/03:30am 11.3 8.5 11.3 100 0.0 E 17 26 9 14 1025.4 1024.7 0.0
06/03:00am 11.5 9.5 11.5 100 0.0 E 13 26 7 14 1025.7 1025.0 0.0
06/02:30am 11.6 9.6 11.6 100 0.0 E 13 20 7 11 1025.8 1025.1 0.0
06/02:00am 11.2 7.6 8.2 82 1.5 E 17 24 9 13 1025.6 1024.9 0.0
06/01:30am 11.0 5.6 -4.3 34 5.8 E 15 20 8 11 1025.7 1025.0 0.0
06/01:00am 8.7 4.2 -3.5 42 4.6 ESE 11 17 6 9 1025.7 1025.0 0.0
06/12:30am 9.1 4.2 -3.6 40 4.8 E 13 17 7 9 1025.9 1025.3 0.0
06/12:00am 8.9 4.0 -3.6 41 4.7 E 13 15 7 8 1026.0 1025.4 0.0
 
Date/Time
CST
Temp
°C
App
Temp
°C
Dew
Point
°C
Rel
Hum
%
Delta-T
°C
Wind Press
QNH
hPa
Press
MSL
hPa
Rain since
9am
mm
Dir  Spd
km/h
Gust
km/h
Spd
kts
Gust
kts
05/11:30pm 10.0 5.5 -3.3 39 5.1 E 11 13 6 7 1026.2 1025.5 0.0
05/11:00pm 10.4 5.0 -4.1 36 5.5 ESE 15 15 8 8 1026.2 1025.5 0.0
05/10:30pm 10.9 5.9 -4.1 34 5.7 E 13 15 7 8 1026.2 1025.5 0.0
05/10:00pm 11.8 6.8 -4.4 32 6.2 E 13 15 7 8 1026.0 1025.4 0.0
05/09:30pm 12.6 7.6 -4.6 30 6.6 E 13 15 7 8 1025.9 1025.3 0.0
05/09:00pm 13.3 7.8 -5.4 27 7.1 E 15 17 8 9 1025.6 1024.9 0.0
05/08:30pm 13.7 8.6 -5.4 26 7.3 E 13 15 7 8 1025.5 1024.8 0.0
05/08:00pm 14.7 9.1 -6.1 23 7.9 E 15 17 8 9 1025.3 1024.6 0.0
05/07:30pm 15.9 10.3 -6.2 21 8.5 ENE 15 17 8 9 1025.1 1024.4 0.0
05/07:00pm 16.4 11.7 -5.1 22 8.5 ENE 11 13 6 7 1024.7 1024.0 0.0
05/06:30pm 17.6 12.7 -6.6 18 9.4 E 11 15 6 8 1024.1 1023.4 0.0
05/06:00pm 19.3 13.9 -8.0 15 10.5 ENE 13 19 7 10 1023.9 1023.2 0.0
05/05:30pm 19.9 14.6 -7.4 15 10.7 ENE 13 20 7 11 1023.8 1023.1 0.0
05/05:00pm 20.1 14.7 -8.6 13 11.0 ENE 13 20 7 11 1023.8 1023.1 0.0
05/04:30pm 20.7 15.0 -8.0 14 11.2 ENE 15 24 8 13 1023.8 1023.1 0.0
05/04:00pm 20.6 14.6 -7.1 15 11.0 NE 17 28 9 15 1023.9 1023.2 0.0
05/03:30pm 20.2 13.8 -7.2 15 10.8 NE 19 28 10 15 1024.0 1023.3 0.0
05/03:00pm 20.5 14.6 -5.8 16 10.7 NE 17 26 9 14 1024.2 1023.5 0.0
05/02:30pm 19.9 14.0 -5.3 18 10.3 ENE 17 28 9 15 1024.7 1024.0 0.0
05/02:00pm 19.5 13.6 -5.9 17 10.3 NE 17 28 9 15 1025.0 1024.3 0.0
05/01:30pm 18.9 13.3 -3.1 22 9.3 ENE 17 26 9 14 1025.5 1024.8 0.0
05/01:00pm 18.6 12.5 -3.8 21 9.4 ENE 19 26 10 14 1026.2 1025.5 0.0
05/12:30pm 17.9 12.3 -3.2 23 8.8 ENE 17 26 9 14 1026.8 1026.1 0.0
05/12:00pm 17.1 10.6 -2.7 25 8.3 NE 22 32 12 17 1027.2 1026.5 0.0
05/11:30am 16.5 9.6 -2.7 26 8.0 ENE 24 33 13 18 1027.7 1027.1 0.0
05/11:00am 16.2 9.4 -1.8 29 7.7 E 24 39 13 21 1028.0 1027.3 0.0
05/10:30am 15.0 8.5 0.1 36 6.5 E 24 39 13 21 1028.2 1027.5 0.0
05/10:00am 13.9 7.5 0.9 41 5.7 E 24 33 13 18 1028.2 1027.5 0.0
05/09:30am 12.9 8.3 1.3 45 5.1 E 15 24 8 13 1028.0 1027.3 0.0
05/09:00am 11.8 7.5 1.2 48 4.6 E 13 20 7 11 1027.7 1027.1 0.0
05/08:30am 8.9 4.5 0.5 55 3.5 E 13 17 7 9 1027.4 1026.8 0.0
05/08:00am 4.9 1.0 -1.4 64 2.4 ESE 9 13 5 7 1027.3 1026.7 0.0
05/07:30am 4.6 -0.1 -1.5 64 2.3 ESE 13 15 7 8 1027.1 1026.4 0.0
05/07:00am 5.0 0.7 -1.9 61 2.6 ESE 11 13 6 7 1026.9 1026.2 0.0
05/06:30am 5.0 1.1 -1.6 62 2.5 SE 9 9 5 5 1027.0 1026.3 0.0
05/06:00am 6.0 2.6 -0.9 61 2.7 ESE 7 7 4 4 1027.0 1026.3 0.0
05/05:30am 6.7 2.8 -1.6 55 3.2 ESE 9 11 5 6 1026.8 1026.1 0.0
05/05:00am 7.2 3.0 -1.2 55 3.3 E 11 13 6 7 1027.0 1026.3 0.0
05/04:30am 7.0 3.1 -1.5 54 3.3 ENE 9 13 5 7 1027.2 1026.5 0.0
05/04:00am 7.0 2.8 -1.2 56 3.2 E 11 13 6 7 1027.3 1026.7 0.0
05/03:30am 7.6 3.3 -1.3 53 3.5 E 11 13 6 7 1027.2 1026.5 0.0
05/03:00am 7.9 3.7 -1.2 52 3.6 ESE 11 13 6 7 1027.2 1026.5 0.0
05/02:30am 8.4 4.2 -0.9 52 3.7 ESE 11 13 6 7 1027.5 1026.9 0.0
05/02:00am 8.8 4.2 -0.9 50 3.9 ESE 13 13 7 7 1027.4 1026.8 0.0
05/01:30am 8.6 4.5 -0.3 53 3.6 ESE 11 13 6 7 1027.7 1027.1 0.0
05/01:00am 9.1 5.9 -0.5 51 3.9 SSE 6 7 3 4 1028.0 1027.3 0.0
05/12:30am 10.4 6.7 -0.2 48 4.4 E 9 17 5 9 1027.8 1027.2 0.0
05/12:00am 11.3 7.6 -0.2 45 4.8 ENE 9 13 5 7 1028.0 1027.3 0.0
 
Date/Time
CST
Temp
°C
App
Temp
°C
Dew
Point
°C
Rel
Hum
%
Delta-T
°C
Wind Press
QNH
hPa
Press
MSL
hPa
Rain since
9am
mm
Dir  Spd
km/h
Gust
km/h
Spd
kts
Gust
kts
04/11:30pm 11.7 7.6 -0.2 44 5.0 ENE 11 13 6 7 1027.8 1027.2 0.0
04/11:00pm 11.5 8.2 -0.2 44 4.9 NNE 7 9 4 5 1028.2 1027.5 0.0
04/10:30pm 11.4 8.2 -0.4 44 4.9 N 6 7 3 4 1028.2 1027.5 0.0
04/10:00pm 11.7 7.1 -0.9 41 5.2 ESE 13 17 7 9 1028.1 1027.4 0.0
04/09:30pm 12.1 7.8 -1.3 39 5.5 ESE 11 15 6 8 1028.3 1027.6 0.0
04/09:00pm 13.3 8.7 -1.4 36 6.1 ESE 13 15 7 8 1028.3 1027.6 0.0
04/08:30pm 14.4 9.8 -1.3 34 6.6 E 13 17 7 9 1028.1 1027.4 0.0
04/08:00pm 14.9 10.7 -0.8 34 6.7 E 11 15 6 8 1027.8 1027.2 0.0
04/07:30pm 15.7 11.5 -0.8 32 7.1 E 11 15 6 8 1027.6 1027.0 0.0
04/07:00pm 16.6 11.5 -1.7 28 7.8 E 15 24 8 13 1027.0 1026.3 0.0
04/06:30pm 17.0 11.6 -1.7 28 8.0 E 17 24 9 13 1027.0 1026.3 0.0
04/06:00pm 17.6 12.9 -1.7 27 8.3 ENE 13 19 7 10 1027.1 1026.4 0.0
04/05:30pm 18.1 12.7 -1.5 26 8.5 ENE 17 20 9 11 1027.1 1026.4 0.0
04/05:00pm 18.7 12.6 -2.3 24 9.0 E 20 28 11 15 1026.8 1026.1 0.0
04/04:30pm 18.3 12.3 -2.7 24 8.9 E 19 28 10 15 1026.8 1026.1 0.0
04/04:00pm 18.4 13.7 -2.1 25 8.8 E 13 20 7 11 1027.2 1026.5 0.0
04/03:30pm 18.3 13.5 -2.3 24 8.8 ESE 13 24 7 13 1027.2 1026.5 0.0
04/03:00pm 18.4 13.5 -0.6 27 8.4 E 15 24 8 13 1027.5 1026.9 0.0
04/02:30pm 18.4 13.6 -2.9 23 9.0 ESE 13 19 7 10 1027.7 1027.1 0.0
04/02:00pm 18.6 12.9 -3.4 22 9.3 E 17 26 9 14 1027.6 1027.0 0.0
04/01:30pm 17.9 12.3 -2.8 24 8.7 E 17 22 9 12 1028.3 1027.6 0.0
04/01:00pm 18.3 13.2 -1.9 25 8.7 ENE 15 22 8 12 1028.9 1028.3 0.0
04/12:30pm 16.5 11.9 -0.8 30 7.5 E 13 20 7 11 1029.6 1029.0 0.0
04/12:00pm 16.3 11.3 -1.2 30 7.5 E 15 22 8 12 1030.1 1029.4 0.0
04/11:30am 16.1 10.2 -0.9 31 7.3 E 20 24 11 13 1030.2 1029.5 0.0
04/11:00am 15.7 9.8 -0.8 32 7.1 E 20 28 11 15 1030.1 1029.4 0.0
04/10:30am 14.8 8.1 -1.0 34 6.7 E 24 32 13 17 1030.0 1029.3 0.0
04/10:00am 14.4 8.2 -0.6 35 6.4 ENE 22 30 12 16 1030.3 1029.7 0.0
04/09:30am 14.0 8.4 -0.3 37 6.1 E 19 26 10 14 1030.2 1029.5 0.0
04/09:00am 13.8 9.0 0.1 39 5.9 E 15 24 8 13 1029.8 1029.1 0.0
04/08:30am 13.4 7.8 -0.2 39 5.8 E 19 30 10 16 1029.1 1028.5 0.0
04/08:00am 13.3 7.5 -0.4 39 5.8 E 20 28 11 15 1029.0 1028.4 0.0
04/07:30am 13.3 8.0 -0.4 39 5.8 E 17 26 9 14 1028.7 1028.0 0.0
04/07:00am 13.4 7.8 -0.2 39 5.8 E 19 26 10 14 1028.7 1028.0 0.0
04/06:30am 13.6 7.8 -0.2 38 5.9 E 20 26 11 14 1028.6 1027.9 0.0
04/06:00am 13.8 7.6 -0.2 38 6.0 E 22 33 12 18 1028.2 1027.5 0.0
04/05:30am 14.0 7.8 -0.2 37 6.1 E 22 32 12 17 1028.2 1027.5 0.0
04/05:00am 14.3 9.0 -0.4 36 6.3 E 17 28 9 15 1028.0 1027.3 0.0
04/04:30am 14.4 9.5 -0.6 35 6.4 E 15 24 8 13 1028.1 1027.4 0.0
04/04:00am 14.6 9.7 -0.6 35 6.5 E 15 20 8 11 1027.8 1027.2 0.0
04/03:30am 15.1 10.6 -0.5 34 6.7 ESE 13 24 7 13 1028.2 1027.5 0.0
04/03:00am 15.0 10.1 -0.6 34 6.7 ESE 15 24 8 13 1027.8 1027.2 0.0
04/02:30am 14.9 9.6 -0.8 34 6.7 ESE 17 26 9 14 1027.8 1027.2 0.0
04/02:00am 15.2 9.3 -0.6 34 6.8 ESE 20 28 11 15 1027.8 1027.2 0.0
04/01:30am 15.4 9.2 -0.6 33 6.9 ESE 22 30 12 16 1028.0 1027.3 0.0
04/01:00am 15.5 9.6 -0.5 33 7.0 ESE 20 32 11 17 1028.0 1027.3 0.0
04/12:30am 15.7 9.8 -0.5 33 7.0 ESE 20 30 11 16 1028.0 1027.3 0.0
04/12:00am 15.8 10.0 -0.3 33 7.0 ESE 20 28 11 15 1028.2 1027.5 0.0
 
Date/Time
CST
Temp
°C
App
Temp
°C
Dew
Point
°C
Rel
Hum
%
Delta-T
°C
Wind Press
QNH
hPa
Press
MSL
hPa
Rain since
9am
mm
Dir  Spd
km/h
Gust
km/h
Spd
kts
Gust
kts
03/11:30pm 16.1 9.5 -0.1 33 7.1 ESE 24 33 13 18 1028.3 1027.6 0.0
03/11:00pm 16.4 10.6 0.0 33 7.3 ESE 20 30 11 16 1028.7 1028.0 0.0

Other formats

Comma delimited format used in spreadsheet applications
http://www.bom.gov.au/fwo/IDD60801/IDD60801.94461.axf

JavaScript Object Notation format (JSON) in row-major order
http://www.bom.gov.au/fwo/IDD60801/IDD60801.94461.json

Data quality

Most of these data are generated automatically and are frequently updated. Quality checks on data are not normally performed. It is possible for incorrect values to appear. Refer to information at About Latest Weather Observations and please check the disclaimer before using these data.